sensor_id;sensor_type;location;lat;lon;timestamp;P1;durP1;ratioP1;P2;durP2;ratioP2
61899;SDS011;47853;55.890;37.664;2024-01-10T00:00:13;2.30;;;1.55;;
61899;SDS011;47853;55.890;37.664;2024-01-10T00:02:39;2.72;;;1.60;;
61899;SDS011;47853;55.890;37.664;2024-01-10T00:05:05;1.45;;;1.35;;
61899;SDS011;47853;55.890;37.664;2024-01-10T00:07:31;2.83;;;2.10;;
61899;SDS011;47853;55.890;37.664;2024-01-10T00:09:56;1.95;;;1.50;;
61899;SDS011;47853;55.890;37.664;2024-01-10T00:12:21;1.95;;;1.60;;
61899;SDS011;47853;55.890;37.664;2024-01-10T00:14:47;2.28;;;1.77;;
61899;SDS011;47853;55.890;37.664;2024-01-10T00:17:12;2.80;;;1.40;;
61899;SDS011;47853;55.890;37.664;2024-01-10T00:19:38;1.83;;;1.50;;
61899;SDS011;47853;55.890;37.664;2024-01-10T00:22:03;2.47;;;1.25;;
61899;SDS011;47853;55.890;37.664;2024-01-10T00:24:29;2.28;;;1.27;;
61899;SDS011;47853;55.890;37.664;2024-01-10T00:26:54;1.63;;;1.42;;
61899;SDS011;47853;55.890;37.664;2024-01-10T00:29:20;1.48;;;1.10;;
61899;SDS011;47853;55.890;37.664;2024-01-10T00:31:45;2.58;;;1.30;;
61899;SDS011;47853;55.890;37.664;2024-01-10T00:34:11;1.85;;;1.30;;
61899;SDS011;47853;55.890;37.664;2024-01-10T00:36:36;1.30;;;1.20;;
61899;SDS011;47853;55.890;37.664;2024-01-10T00:39:01;1.40;;;1.17;;
61899;SDS011;47853;55.890;37.664;2024-01-10T00:41:30;2.28;;;1.33;;
61899;SDS011;47853;55.890;37.664;2024-01-10T00:43:55;1.60;;;1.20;;
61899;SDS011;47853;55.890;37.664;2024-01-10T00:46:23;2.67;;;1.50;;
61899;SDS011;47853;55.890;37.664;2024-01-10T00:48:49;1.27;;;1.17;;
61899;SDS011;47853;55.890;37.664;2024-01-10T00:51:14;1.92;;;1.35;;
61899;SDS011;47853;55.890;37.664;2024-01-10T00:53:40;1.10;;;0.90;;
61899;SDS011;47853;55.890;37.664;2024-01-10T00:56:05;1.20;;;1.10;;
61899;SDS011;47853;55.890;37.664;2024-01-10T00:58:31;0.85;;;0.80;;
61899;SDS011;47853;55.890;37.664;2024-01-10T01:00:57;0.90;;;0.90;;
61899;SDS011;47853;55.890;37.664;2024-01-10T01:03:22;0.80;;;0.80;;
61899;SDS011;47853;55.890;37.664;2024-01-10T01:05:48;1.38;;;0.70;;
61899;SDS011;47853;55.890;37.664;2024-01-10T01:08:13;1.10;;;1.00;;
61899;SDS011;47853;55.890;37.664;2024-01-10T01:10:39;0.73;;;0.73;;
61899;SDS011;47853;55.890;37.664;2024-01-10T01:13:04;0.80;;;0.80;;
61899;SDS011;47853;55.890;37.664;2024-01-10T01:15:29;0.65;;;0.60;;
61899;SDS011;47853;55.890;37.664;2024-01-10T01:17:55;1.15;;;0.88;;
61899;SDS011;47853;55.890;37.664;2024-01-10T01:20:20;0.98;;;0.90;;
61899;SDS011;47853;55.890;37.664;2024-01-10T01:22:46;1.15;;;0.77;;
61899;SDS011;47853;55.890;37.664;2024-01-10T01:25:11;1.23;;;1.05;;
61899;SDS011;47853;55.890;37.664;2024-01-10T01:27:37;1.48;;;1.00;;
61899;SDS011;47853;55.890;37.664;2024-01-10T01:30:02;2.47;;;1.60;;
61899;SDS011;47853;55.890;37.664;2024-01-10T01:32:28;2.30;;;1.00;;
61899;SDS011;47853;55.890;37.664;2024-01-10T01:34:53;1.42;;;1.10;;
61899;SDS011;47853;55.890;37.664;2024-01-10T01:37:19;1.00;;;0.88;;
61899;SDS011;47853;55.890;37.664;2024-01-10T01:39:44;2.03;;;1.00;;
61899;SDS011;47853;55.890;37.664;2024-01-10T01:42:13;0.60;;;0.60;;
61899;SDS011;47853;55.890;37.664;2024-01-10T01:44:38;0.70;;;0.70;;
61899;SDS011;47853;55.890;37.664;2024-01-10T01:47:03;0.80;;;0.70;;
61899;SDS011;47853;55.890;37.664;2024-01-10T01:49:29;0.60;;;0.60;;
61899;SDS011;47853;55.890;37.664;2024-01-10T01:51:54;0.93;;;0.77;;
61899;SDS011;47853;55.890;37.664;2024-01-10T01:54:20;0.57;;;0.57;;
61899;SDS011;47853;55.890;37.664;2024-01-10T01:56:46;0.55;;;0.55;;
61899;SDS011;47853;55.890;37.664;2024-01-10T01:59:13;0.50;;;0.50;;
61899;SDS011;47853;55.890;37.664;2024-01-10T02:01:39;2.95;;;0.50;;
61899;SDS011;47853;55.890;37.664;2024-01-10T02:04:05;1.00;;;0.52;;
61899;SDS011;47853;55.890;37.664;2024-01-10T02:06:30;0.40;;;0.40;;
61899;SDS011;47853;55.890;37.664;2024-01-10T02:08:59;0.43;;;0.43;;
61899;SDS011;47853;55.890;37.664;2024-01-10T02:11:25;0.50;;;0.40;;
61899;SDS011;47853;55.890;37.664;2024-01-10T02:13:51;0.82;;;0.82;;
61899;SDS011;47853;55.890;37.664;2024-01-10T02:16:17;0.45;;;0.45;;
61899;SDS011;47853;55.890;37.664;2024-01-10T02:18:43;0.50;;;0.50;;
61899;SDS011;47853;55.890;37.664;2024-01-10T02:21:08;0.63;;;0.63;;
61899;SDS011;47853;55.890;37.664;2024-01-10T02:23:34;0.40;;;0.30;;
61899;SDS011;47853;55.890;37.664;2024-01-10T02:25:59;0.40;;;0.40;;
61899;SDS011;47853;55.890;37.664;2024-01-10T02:28:24;0.95;;;0.60;;
61899;SDS011;47853;55.890;37.664;2024-01-10T02:30:50;0.30;;;0.30;;
61899;SDS011;47853;55.890;37.664;2024-01-10T02:33:16;0.90;;;0.60;;
61899;SDS011;47853;55.890;37.664;2024-01-10T02:35:41;0.50;;;0.50;;
61899;SDS011;47853;55.890;37.664;2024-01-10T02:38:07;0.95;;;0.60;;
61899;SDS011;47853;55.890;37.664;2024-01-10T02:40:32;0.40;;;0.40;;
61899;SDS011;47853;55.890;37.664;2024-01-10T02:42:58;0.57;;;0.57;;
61899;SDS011;47853;55.890;37.664;2024-01-10T02:45:23;0.73;;;0.52;;
61899;SDS011;47853;55.890;37.664;2024-01-10T02:47:48;1.10;;;0.70;;
61899;SDS011;47853;55.890;37.664;2024-01-10T02:50:14;1.63;;;0.70;;
61899;SDS011;47853;55.890;37.664;2024-01-10T02:52:39;0.73;;;0.60;;
61899;SDS011;47853;55.890;37.664;2024-01-10T02:55:05;2.25;;;0.90;;
61899;SDS011;47853;55.890;37.664;2024-01-10T02:57:30;1.70;;;1.05;;
61899;SDS011;47853;55.890;37.664;2024-01-10T02:59:56;1.90;;;1.27;;
61899;SDS011;47853;55.890;37.664;2024-01-10T03:02:21;1.58;;;1.40;;
61899;SDS011;47853;55.890;37.664;2024-01-10T03:04:47;3.45;;;1.40;;
61899;SDS011;47853;55.890;37.664;2024-01-10T03:07:13;2.10;;;1.48;;
61899;SDS011;47853;55.890;37.664;2024-01-10T03:09:38;2.53;;;1.50;;
61899;SDS011;47853;55.890;37.664;2024-01-10T03:12:04;4.05;;;2.03;;
61899;SDS011;47853;55.890;37.664;2024-01-10T03:14:29;3.35;;;2.00;;
61899;SDS011;47853;55.890;37.664;2024-01-10T03:16:55;3.55;;;2.28;;
61899;SDS011;47853;55.890;37.664;2024-01-10T03:19:20;2.83;;;2.47;;
61899;SDS011;47853;55.890;37.664;2024-01-10T03:21:45;2.88;;;2.20;;
61899;SDS011;47853;55.890;37.664;2024-01-10T03:24:11;3.50;;;2.03;;
61899;SDS011;47853;55.890;37.664;2024-01-10T03:26:36;3.17;;;2.40;;
61899;SDS011;47853;55.890;37.664;2024-01-10T03:29:02;4.35;;;2.45;;
61899;SDS011;47853;55.890;37.664;2024-01-10T03:31:28;7.20;;;3.28;;
61899;SDS011;47853;55.890;37.664;2024-01-10T03:33:54;6.45;;;4.07;;
61899;SDS011;47853;55.890;37.664;2024-01-10T03:36:19;7.75;;;4.85;;
61899;SDS011;47853;55.890;37.664;2024-01-10T03:38:45;9.20;;;5.07;;
61899;SDS011;47853;55.890;37.664;2024-01-10T03:41:14;7.10;;;4.45;;
61899;SDS011;47853;55.890;37.664;2024-01-10T03:43:40;10.80;;;5.65;;
61899;SDS011;47853;55.890;37.664;2024-01-10T03:46:05;13.50;;;6.03;;
61899;SDS011;47853;55.890;37.664;2024-01-10T03:48:31;9.93;;;5.60;;
61899;SDS011;47853;55.890;37.664;2024-01-10T03:50:56;8.32;;;5.55;;
61899;SDS011;47853;55.890;37.664;2024-01-10T03:53:21;11.98;;;5.90;;
61899;SDS011;47853;55.890;37.664;2024-01-10T03:55:47;10.13;;;6.07;;
61899;SDS011;47853;55.890;37.664;2024-01-10T03:58:12;10.75;;;6.20;;
61899;SDS011;47853;55.890;37.664;2024-01-10T04:00:38;9.13;;;5.60;;
61899;SDS011;47853;55.890;37.664;2024-01-10T04:03:03;9.20;;;5.55;;
61899;SDS011;47853;55.890;37.664;2024-01-10T04:05:29;9.77;;;5.28;;
61899;SDS011;47853;55.890;37.664;2024-01-10T04:07:54;8.98;;;5.85;;
61899;SDS011;47853;55.890;37.664;2024-01-10T04:10:20;8.82;;;5.43;;
61899;SDS011;47853;55.890;37.664;2024-01-10T04:12:45;11.57;;;5.68;;
61899;SDS011;47853;55.890;37.664;2024-01-10T04:15:11;9.55;;;5.47;;
61899;SDS011;47853;55.890;37.664;2024-01-10T04:17:37;12.38;;;6.45;;
61899;SDS011;47853;55.890;37.664;2024-01-10T04:20:03;13.02;;;6.13;;
61899;SDS011;47853;55.890;37.664;2024-01-10T04:22:29;10.63;;;6.95;;
61899;SDS011;47853;55.890;37.664;2024-01-10T04:25:00;12.00;;;7.00;;
61899;SDS011;47853;55.890;37.664;2024-01-10T04:27:26;13.70;;;5.95;;
61899;SDS011;47853;55.890;37.664;2024-01-10T04:29:52;11.57;;;5.90;;
61899;SDS011;47853;55.890;37.664;2024-01-10T04:32:18;8.73;;;5.68;;
61899;SDS011;47853;55.890;37.664;2024-01-10T04:34:45;8.35;;;4.70;;
61899;SDS011;47853;55.890;37.664;2024-01-10T04:37:11;7.80;;;5.10;;
61899;SDS011;47853;55.890;37.664;2024-01-10T04:39:36;9.52;;;5.45;;
61899;SDS011;47853;55.890;37.664;2024-01-10T04:42:02;13.52;;;6.18;;
61899;SDS011;47853;55.890;37.664;2024-01-10T04:44:27;9.18;;;5.20;;
61899;SDS011;47853;55.890;37.664;2024-01-10T04:46:53;7.85;;;4.78;;
61899;SDS011;47853;55.890;37.664;2024-01-10T04:49:18;7.97;;;5.65;;
61899;SDS011;47853;55.890;37.664;2024-01-10T04:51:44;8.38;;;4.82;;
61899;SDS011;47853;55.890;37.664;2024-01-10T04:54:09;10.00;;;4.97;;
61899;SDS011;47853;55.890;37.664;2024-01-10T04:56:35;8.02;;;4.75;;
61899;SDS011;47853;55.890;37.664;2024-01-10T04:59:00;8.32;;;4.63;;
61899;SDS011;47853;55.890;37.664;2024-01-10T05:01:26;8.73;;;4.97;;
61899;SDS011;47853;55.890;37.664;2024-01-10T05:03:51;10.68;;;6.10;;
61899;SDS011;47853;55.890;37.664;2024-01-10T05:06:16;15.23;;;8.60;;
61899;SDS011;47853;55.890;37.664;2024-01-10T05:08:42;9.70;;;5.63;;
61899;SDS011;47853;55.890;37.664;2024-01-10T05:11:07;11.52;;;5.63;;
61899;SDS011;47853;55.890;37.664;2024-01-10T05:13:33;8.13;;;5.57;;
61899;SDS011;47853;55.890;37.664;2024-01-10T05:15:58;11.57;;;5.40;;
61899;SDS011;47853;55.890;37.664;2024-01-10T05:18:24;13.20;;;5.60;;
61899;SDS011;47853;55.890;37.664;2024-01-10T05:20:49;9.75;;;5.20;;
61899;SDS011;47853;55.890;37.664;2024-01-10T05:23:15;8.90;;;5.35;;
61899;SDS011;47853;55.890;37.664;2024-01-10T05:25:40;11.63;;;5.32;;
61899;SDS011;47853;55.890;37.664;2024-01-10T05:28:05;7.55;;;4.63;;
61899;SDS011;47853;55.890;37.664;2024-01-10T05:30:31;9.85;;;5.68;;
61899;SDS011;47853;55.890;37.664;2024-01-10T05:32:56;7.85;;;5.05;;
61899;SDS011;47853;55.890;37.664;2024-01-10T05:35:22;7.35;;;4.70;;
61899;SDS011;47853;55.890;37.664;2024-01-10T05:37:48;6.90;;;4.10;;
61899;SDS011;47853;55.890;37.664;2024-01-10T05:40:13;9.88;;;6.50;;
61899;SDS011;47853;55.890;37.664;2024-01-10T05:42:39;7.57;;;4.90;;
61899;SDS011;47853;55.890;37.664;2024-01-10T05:45:04;9.35;;;4.93;;
61899;SDS011;47853;55.890;37.664;2024-01-10T05:47:30;9.38;;;5.43;;
61899;SDS011;47853;55.890;37.664;2024-01-10T05:49:56;16.17;;;8.32;;
61899;SDS011;47853;55.890;37.664;2024-01-10T05:52:21;12.68;;;6.50;;
61899;SDS011;47853;55.890;37.664;2024-01-10T05:54:46;10.00;;;5.28;;
61899;SDS011;47853;55.890;37.664;2024-01-10T05:57:12;9.40;;;5.40;;
61899;SDS011;47853;55.890;37.664;2024-01-10T05:59:37;8.38;;;5.28;;
61899;SDS011;47853;55.890;37.664;2024-01-10T06:02:03;7.50;;;5.18;;
61899;SDS011;47853;55.890;37.664;2024-01-10T06:04:28;7.45;;;5.05;;
61899;SDS011;47853;55.890;37.664;2024-01-10T06:06:54;9.75;;;5.32;;
61899;SDS011;47853;55.890;37.664;2024-01-10T06:09:19;6.85;;;4.57;;
61899;SDS011;47853;55.890;37.664;2024-01-10T06:11:45;6.63;;;4.43;;
61899;SDS011;47853;55.890;37.664;2024-01-10T06:14:10;8.50;;;4.20;;
61899;SDS011;47853;55.890;37.664;2024-01-10T06:16:35;6.45;;;4.55;;
61899;SDS011;47853;55.890;37.664;2024-01-10T06:19:01;17.13;;;7.60;;
61899;SDS011;47853;55.890;37.664;2024-01-10T06:21:26;7.18;;;4.30;;
61899;SDS011;47853;55.890;37.664;2024-01-10T06:23:52;3.97;;;3.38;;
61899;SDS011;47853;55.890;37.664;2024-01-10T06:26:17;6.70;;;4.25;;
61899;SDS011;47853;55.890;37.664;2024-01-10T06:28:43;9.93;;;5.72;;
61899;SDS011;47853;55.890;37.664;2024-01-10T06:31:08;6.65;;;4.53;;
61899;SDS011;47853;55.890;37.664;2024-01-10T06:33:34;5.80;;;3.97;;
61899;SDS011;47853;55.890;37.664;2024-01-10T06:35:59;8.27;;;5.13;;
61899;SDS011;47853;55.890;37.664;2024-01-10T06:38:24;11.40;;;5.30;;
61899;SDS011;47853;55.890;37.664;2024-01-10T06:40:50;8.02;;;4.97;;
61899;SDS011;47853;55.890;37.664;2024-01-10T06:43:15;8.02;;;4.85;;
61899;SDS011;47853;55.890;37.664;2024-01-10T06:45:41;9.63;;;5.15;;
61899;SDS011;47853;55.890;37.664;2024-01-10T06:48:07;9.02;;;5.40;;
61899;SDS011;47853;55.890;37.664;2024-01-10T06:50:32;7.88;;;4.70;;
61899;SDS011;47853;55.890;37.664;2024-01-10T06:52:58;9.48;;;5.25;;
61899;SDS011;47853;55.890;37.664;2024-01-10T06:55:23;10.98;;;5.18;;
61899;SDS011;47853;55.890;37.664;2024-01-10T06:57:48;8.27;;;4.75;;
61899;SDS011;47853;55.890;37.664;2024-01-10T07:00:14;9.60;;;4.63;;
61899;SDS011;47853;55.890;37.664;2024-01-10T07:02:43;7.28;;;4.70;;
61899;SDS011;47853;55.890;37.664;2024-01-10T07:05:09;11.40;;;6.60;;
61899;SDS011;47853;55.890;37.664;2024-01-10T07:07:34;14.98;;;6.68;;
61899;SDS011;47853;55.890;37.664;2024-01-10T07:10:00;9.52;;;5.13;;
61899;SDS011;47853;55.890;37.664;2024-01-10T07:12:26;11.68;;;5.93;;
61899;SDS011;47853;55.890;37.664;2024-01-10T07:14:51;10.70;;;4.75;;
61899;SDS011;47853;55.890;37.664;2024-01-10T07:17:17;11.95;;;5.40;;
61899;SDS011;47853;55.890;37.664;2024-01-10T07:19:42;12.85;;;5.55;;
61899;SDS011;47853;55.890;37.664;2024-01-10T07:22:07;9.57;;;4.65;;
61899;SDS011;47853;55.890;37.664;2024-01-10T07:24:33;8.13;;;4.22;;
61899;SDS011;47853;55.890;37.664;2024-01-10T07:26:58;6.45;;;4.50;;
61899;SDS011;47853;55.890;37.664;2024-01-10T07:29:24;7.53;;;4.65;;
61899;SDS011;47853;55.890;37.664;2024-01-10T07:31:49;9.32;;;4.60;;
61899;SDS011;47853;55.890;37.664;2024-01-10T07:34:15;6.68;;;3.75;;
61899;SDS011;47853;55.890;37.664;2024-01-10T07:36:43;9.25;;;4.07;;
61899;SDS011;47853;55.890;37.664;2024-01-10T07:39:08;8.48;;;3.58;;
61899;SDS011;47853;55.890;37.664;2024-01-10T07:41:34;6.47;;;3.78;;
61899;SDS011;47853;55.890;37.664;2024-01-10T07:43:59;6.78;;;4.30;;
61899;SDS011;47853;55.890;37.664;2024-01-10T07:46:25;7.50;;;3.83;;
61899;SDS011;47853;55.890;37.664;2024-01-10T07:48:50;7.63;;;4.00;;
61899;SDS011;47853;55.890;37.664;2024-01-10T07:51:15;5.75;;;3.20;;
61899;SDS011;47853;55.890;37.664;2024-01-10T07:53:41;7.57;;;3.63;;
61899;SDS011;47853;55.890;37.664;2024-01-10T07:56:06;10.70;;;4.47;;
61899;SDS011;47853;55.890;37.664;2024-01-10T07:58:32;7.57;;;4.25;;
61899;SDS011;47853;55.890;37.664;2024-01-10T08:00:57;18.55;;;9.38;;
61899;SDS011;47853;55.890;37.664;2024-01-10T08:03:22;29.88;;;14.23;;
61899;SDS011;47853;55.890;37.664;2024-01-10T08:05:49;10.07;;;4.43;;
61899;SDS011;47853;55.890;37.664;2024-01-10T08:08:15;8.02;;;4.40;;
61899;SDS011;47853;55.890;37.664;2024-01-10T08:10:40;10.60;;;5.00;;
61899;SDS011;47853;55.890;37.664;2024-01-10T08:13:05;8.75;;;4.85;;
61899;SDS011;47853;55.890;37.664;2024-01-10T08:15:31;8.40;;;4.88;;
61899;SDS011;47853;55.890;37.664;2024-01-10T08:17:56;9.75;;;4.80;;
61899;SDS011;47853;55.890;37.664;2024-01-10T08:20:22;11.93;;;4.45;;
61899;SDS011;47853;55.890;37.664;2024-01-10T08:22:47;6.40;;;4.18;;
61899;SDS011;47853;55.890;37.664;2024-01-10T08:25:13;7.95;;;4.90;;
61899;SDS011;47853;55.890;37.664;2024-01-10T08:27:38;10.07;;;4.40;;
61899;SDS011;47853;55.890;37.664;2024-01-10T08:30:04;24.88;;;12.55;;
61899;SDS011;47853;55.890;37.664;2024-01-10T08:32:30;29.60;;;17.27;;
61899;SDS011;47853;55.890;37.664;2024-01-10T08:34:55;7.78;;;4.70;;
61899;SDS011;47853;55.890;37.664;2024-01-10T08:37:21;6.97;;;4.22;;
61899;SDS011;47853;55.890;37.664;2024-01-10T08:39:46;10.80;;;4.30;;
61899;SDS011;47853;55.890;37.664;2024-01-10T08:42:12;6.78;;;4.28;;
61899;SDS011;47853;55.890;37.664;2024-01-10T08:44:37;7.85;;;4.78;;
61899;SDS011;47853;55.890;37.664;2024-01-10T08:47:03;7.20;;;4.15;;
61899;SDS011;47853;55.890;37.664;2024-01-10T08:49:28;5.45;;;3.85;;
61899;SDS011;47853;55.890;37.664;2024-01-10T08:51:54;6.35;;;4.15;;
61899;SDS011;47853;55.890;37.664;2024-01-10T08:54:19;7.63;;;4.35;;
61899;SDS011;47853;55.890;37.664;2024-01-10T08:56:45;8.43;;;4.75;;
61899;SDS011;47853;55.890;37.664;2024-01-10T08:59:14;6.93;;;4.75;;
61899;SDS011;47853;55.890;37.664;2024-01-10T09:01:39;10.30;;;5.28;;
61899;SDS011;47853;55.890;37.664;2024-01-10T09:04:05;9.07;;;5.43;;
61899;SDS011;47853;55.890;37.664;2024-01-10T09:06:31;11.60;;;6.28;;
61899;SDS011;47853;55.890;37.664;2024-01-10T09:08:57;7.70;;;5.03;;
61899;SDS011;47853;55.890;37.664;2024-01-10T09:11:22;9.93;;;5.28;;
61899;SDS011;47853;55.890;37.664;2024-01-10T09:13:48;10.77;;;5.72;;
61899;SDS011;47853;55.890;37.664;2024-01-10T09:16:13;9.10;;;4.60;;
61899;SDS011;47853;55.890;37.664;2024-01-10T09:18:39;10.57;;;6.00;;
61899;SDS011;47853;55.890;37.664;2024-01-10T09:21:04;10.48;;;6.10;;
61899;SDS011;47853;55.890;37.664;2024-01-10T09:23:29;8.18;;;5.28;;
61899;SDS011;47853;55.890;37.664;2024-01-10T09:25:55;7.95;;;5.20;;
61899;SDS011;47853;55.890;37.664;2024-01-10T09:28:20;8.38;;;5.00;;
61899;SDS011;47853;55.890;37.664;2024-01-10T09:30:46;9.55;;;4.85;;
61899;SDS011;47853;55.890;37.664;2024-01-10T09:33:11;10.32;;;4.60;;
61899;SDS011;47853;55.890;37.664;2024-01-10T09:35:36;8.43;;;4.53;;
61899;SDS011;47853;55.890;37.664;2024-01-10T09:38:02;9.13;;;5.13;;
61899;SDS011;47853;55.890;37.664;2024-01-10T09:40:27;7.50;;;4.75;;
61899;SDS011;47853;55.890;37.664;2024-01-10T09:42:53;8.20;;;4.45;;
61899;SDS011;47853;55.890;37.664;2024-01-10T09:45:19;6.95;;;4.25;;
61899;SDS011;47853;55.890;37.664;2024-01-10T09:47:48;10.02;;;4.30;;
61899;SDS011;47853;55.890;37.664;2024-01-10T09:50:14;5.57;;;4.22;;
61899;SDS011;47853;55.890;37.664;2024-01-10T09:52:53;6.72;;;3.95;;
61899;SDS011;47853;55.890;37.664;2024-01-10T09:55:23;9.65;;;4.75;;
61899;SDS011;47853;55.890;37.664;2024-01-10T09:57:51;9.20;;;4.70;;
61899;SDS011;47853;55.890;37.664;2024-01-10T10:00:17;7.63;;;4.85;;
61899;SDS011;47853;55.890;37.664;2024-01-10T10:02:43;5.40;;;4.15;;
61899;SDS011;47853;55.890;37.664;2024-01-10T10:05:17;6.72;;;3.78;;
61899;SDS011;47853;55.890;37.664;2024-01-10T10:07:51;8.35;;;4.28;;
61899;SDS011;47853;55.890;37.664;2024-01-10T10:10:17;10.57;;;4.55;;
61899;SDS011;47853;55.890;37.664;2024-01-10T10:12:48;6.13;;;4.00;;
61899;SDS011;47853;55.890;37.664;2024-01-10T10:15:15;7.57;;;3.90;;
61899;SDS011;47853;55.890;37.664;2024-01-10T10:17:45;6.32;;;3.28;;
61899;SDS011;47853;55.890;37.664;2024-01-10T10:25:32;7.55;;;3.85;;
61899;SDS011;47853;55.890;37.664;2024-01-10T10:28:15;6.32;;;3.83;;
61899;SDS011;47853;55.890;37.664;2024-01-10T10:30:41;8.82;;;4.15;;
61899;SDS011;47853;55.890;37.664;2024-01-10T10:33:06;6.18;;;4.22;;
61899;SDS011;47853;55.890;37.664;2024-01-10T10:35:32;9.25;;;5.32;;
61899;SDS011;47853;55.890;37.664;2024-01-10T10:37:58;11.57;;;6.28;;
61899;SDS011;47853;55.890;37.664;2024-01-10T10:40:23;7.63;;;3.85;;
61899;SDS011;47853;55.890;37.664;2024-01-10T10:42:50;9.57;;;4.00;;
61899;SDS011;47853;55.890;37.664;2024-01-10T10:45:20;7.60;;;4.25;;
61899;SDS011;47853;55.890;37.664;2024-01-10T10:47:46;6.97;;;3.85;;
61899;SDS011;47853;55.890;37.664;2024-01-10T10:50:21;6.95;;;3.78;;
61899;SDS011;47853;55.890;37.664;2024-01-10T10:52:48;6.45;;;3.45;;
61899;SDS011;47853;55.890;37.664;2024-01-10T10:55:15;7.13;;;3.65;;
61899;SDS011;47853;55.890;37.664;2024-01-10T10:57:41;6.00;;;4.05;;
61899;SDS011;47853;55.890;37.664;2024-01-10T11:00:09;7.90;;;4.25;;
61899;SDS011;47853;55.890;37.664;2024-01-10T11:02:37;7.20;;;4.40;;
61899;SDS011;47853;55.890;37.664;2024-01-10T11:05:06;7.60;;;4.95;;
61899;SDS011;47853;55.890;37.664;2024-01-10T11:07:34;9.35;;;4.35;;
61899;SDS011;47853;55.890;37.664;2024-01-10T11:10:01;6.72;;;4.40;;
61899;SDS011;47853;55.890;37.664;2024-01-10T11:21:05;9.50;;;5.22;;
61899;SDS011;47853;55.890;37.664;2024-01-10T11:23:54;9.27;;;5.32;;
61899;SDS011;47853;55.890;37.664;2024-01-10T11:26:23;7.57;;;5.10;;
61899;SDS011;47853;55.890;37.664;2024-01-10T11:28:48;7.85;;;5.05;;
61899;SDS011;47853;55.890;37.664;2024-01-10T11:31:15;18.10;;;5.75;;
61899;SDS011;47853;55.890;37.664;2024-01-10T11:33:40;9.18;;;5.00;;
61899;SDS011;47853;55.890;37.664;2024-01-10T11:36:27;9.73;;;4.85;;
61899;SDS011;47853;55.890;37.664;2024-01-10T11:41:38;9.15;;;4.22;;
61899;SDS011;47853;55.890;37.664;2024-01-10T11:46:37;11.70;;;4.30;;
61899;SDS011;47853;55.890;37.664;2024-01-10T11:49:06;6.68;;;4.93;;
61899;SDS011;47853;55.890;37.664;2024-01-10T11:51:32;19.90;;;5.05;;
61899;SDS011;47853;55.890;37.664;2024-01-10T11:54:00;7.05;;;4.13;;
61899;SDS011;47853;55.890;37.664;2024-01-10T11:56:25;6.18;;;4.68;;
61899;SDS011;47853;55.890;37.664;2024-01-10T11:59:03;7.20;;;4.20;;
61899;SDS011;47853;55.890;37.664;2024-01-10T12:01:32;10.27;;;5.15;;
61899;SDS011;47853;55.890;37.664;2024-01-10T12:03:58;10.80;;;4.60;;
61899;SDS011;47853;55.890;37.664;2024-01-10T12:06:24;10.13;;;4.00;;
61899;SDS011;47853;55.890;37.664;2024-01-10T12:08:50;9.88;;;4.65;;
61899;SDS011;47853;55.890;37.664;2024-01-10T12:11:16;9.90;;;4.95;;
61899;SDS011;47853;55.890;37.664;2024-01-10T12:13:42;9.75;;;5.15;;
61899;SDS011;47853;55.890;37.664;2024-01-10T12:16:08;8.50;;;4.68;;
61899;SDS011;47853;55.890;37.664;2024-01-10T12:18:36;10.48;;;4.38;;
61899;SDS011;47853;55.890;37.664;2024-01-10T12:21:02;8.52;;;4.97;;
61899;SDS011;47853;55.890;37.664;2024-01-10T12:23:27;8.20;;;5.35;;
61899;SDS011;47853;55.890;37.664;2024-01-10T12:25:53;18.90;;;5.90;;
61899;SDS011;47853;55.890;37.664;2024-01-10T12:28:18;11.45;;;5.20;;
61899;SDS011;47853;55.890;37.664;2024-01-10T12:30:44;10.75;;;4.93;;
61899;SDS011;47853;55.890;37.664;2024-01-10T12:33:09;7.22;;;4.30;;
61899;SDS011;47853;55.890;37.664;2024-01-10T12:35:35;7.85;;;4.80;;
61899;SDS011;47853;55.890;37.664;2024-01-10T12:38:00;6.60;;;4.43;;
61899;SDS011;47853;55.890;37.664;2024-01-10T12:40:25;9.23;;;5.30;;
61899;SDS011;47853;55.890;37.664;2024-01-10T12:43:04;11.57;;;5.72;;
61899;SDS011;47853;55.890;37.664;2024-01-10T12:45:29;11.50;;;6.18;;
61899;SDS011;47853;55.890;37.664;2024-01-10T12:47:56;10.90;;;5.78;;
61899;SDS011;47853;55.890;37.664;2024-01-10T12:50:22;9.60;;;5.30;;
61899;SDS011;47853;55.890;37.664;2024-01-10T12:52:48;8.57;;;4.70;;
61899;SDS011;47853;55.890;37.664;2024-01-10T12:55:13;8.45;;;4.82;;
61899;SDS011;47853;55.890;37.664;2024-01-10T12:57:39;10.32;;;4.93;;
61899;SDS011;47853;55.890;37.664;2024-01-10T13:00:05;10.63;;;5.43;;
61899;SDS011;47853;55.890;37.664;2024-01-10T13:02:30;12.68;;;5.38;;
61899;SDS011;47853;55.890;37.664;2024-01-10T13:04:56;8.75;;;5.15;;
61899;SDS011;47853;55.890;37.664;2024-01-10T13:07:21;11.07;;;5.28;;
61899;SDS011;47853;55.890;37.664;2024-01-10T13:09:47;8.98;;;5.05;;
61899;SDS011;47853;55.890;37.664;2024-01-10T13:12:12;10.93;;;4.85;;
61899;SDS011;47853;55.890;37.664;2024-01-10T13:14:38;6.63;;;4.85;;
61899;SDS011;47853;55.890;37.664;2024-01-10T13:17:03;10.90;;;5.50;;
61899;SDS011;47853;55.890;37.664;2024-01-10T13:19:30;9.10;;;5.82;;
61899;SDS011;47853;55.890;37.664;2024-01-10T13:21:55;7.80;;;5.03;;
61899;SDS011;47853;55.890;37.664;2024-01-10T13:24:21;11.70;;;5.80;;
61899;SDS011;47853;55.890;37.664;2024-01-10T13:26:46;7.82;;;4.97;;
61899;SDS011;47853;55.890;37.664;2024-01-10T13:29:11;9.05;;;5.45;;
61899;SDS011;47853;55.890;37.664;2024-01-10T13:31:37;9.98;;;5.53;;
61899;SDS011;47853;55.890;37.664;2024-01-10T13:34:02;8.85;;;5.30;;
61899;SDS011;47853;55.890;37.664;2024-01-10T13:36:28;10.57;;;5.32;;
61899;SDS011;47853;55.890;37.664;2024-01-10T13:38:53;17.98;;;5.03;;
61899;SDS011;47853;55.890;37.664;2024-01-10T13:41:18;7.38;;;4.90;;
61899;SDS011;47853;55.890;37.664;2024-01-10T13:43:44;10.00;;;6.40;;
61899;SDS011;47853;55.890;37.664;2024-01-10T13:46:09;13.65;;;6.28;;
61899;SDS011;47853;55.890;37.664;2024-01-10T13:48:35;12.38;;;6.22;;
61899;SDS011;47853;55.890;37.664;2024-01-10T13:51:00;7.55;;;4.80;;
61899;SDS011;47853;55.890;37.664;2024-01-10T13:53:26;10.30;;;5.53;;
61899;SDS011;47853;55.890;37.664;2024-01-10T13:55:51;9.80;;;5.45;;
61899;SDS011;47853;55.890;37.664;2024-01-10T13:58:16;9.13;;;5.35;;
61899;SDS011;47853;55.890;37.664;2024-01-10T14:00:42;10.45;;;5.53;;
61899;SDS011;47853;55.890;37.664;2024-01-10T14:03:07;10.93;;;5.53;;
61899;SDS011;47853;55.890;37.664;2024-01-10T14:05:33;10.63;;;5.55;;
61899;SDS011;47853;55.890;37.664;2024-01-10T14:07:58;9.85;;;5.55;;
61899;SDS011;47853;55.890;37.664;2024-01-10T14:10:24;10.27;;;5.28;;
61899;SDS011;47853;55.890;37.664;2024-01-10T14:12:49;15.90;;;6.10;;
61899;SDS011;47853;55.890;37.664;2024-01-10T14:15:15;9.70;;;5.95;;
61899;SDS011;47853;55.890;37.664;2024-01-10T14:17:40;8.75;;;6.15;;
61899;SDS011;47853;55.890;37.664;2024-01-10T14:20:06;12.07;;;6.10;;
61899;SDS011;47853;55.890;37.664;2024-01-10T14:22:32;16.15;;;6.22;;
61899;SDS011;47853;55.890;37.664;2024-01-10T14:25:00;10.85;;;5.75;;
61899;SDS011;47853;55.890;37.664;2024-01-10T14:27:26;10.48;;;5.90;;
61899;SDS011;47853;55.890;37.664;2024-01-10T14:29:51;10.50;;;6.30;;
61899;SDS011;47853;55.890;37.664;2024-01-10T14:32:16;13.95;;;7.38;;
61899;SDS011;47853;55.890;37.664;2024-01-10T14:34:42;16.60;;;7.90;;
61899;SDS011;47853;55.890;37.664;2024-01-10T14:37:13;12.60;;;7.88;;
61899;SDS011;47853;55.890;37.664;2024-01-10T14:39:39;12.77;;;6.95;;
61899;SDS011;47853;55.890;37.664;2024-01-10T14:42:07;10.10;;;6.00;;